Time;durP1;ratioP1;P1;durP2;ratioP2;P2;SDS_P1;SDS_P2;PMS_P1;PMS_P2;Temp;Humidity;BMP_temperature;BMP_pressure;BME280_temperature;BME280_humidity;BME280_pressure;Samples;Min_cycle;Max_cycle;Signal;HPM_P1;HPM_P2
2022/01/06 00:00:59;;;;;;;3.17;1.27;;;;;;;20.38;37.92;101232.56;5057986;28;20025;-67
2022/01/06 00:03:26;;;;;;;3.05;1.23;;;;;;;20.34;37.61;101227.81;5056622;28;20071;-67
2022/01/06 00:05:52;;;;;;;2.95;1.50;;;;;;;20.33;37.70;101229.63;5060573;28;20032;-67
2022/01/06 00:08:18;;;;;;;3.00;1.70;;;;;;;20.26;37.94;101235.75;5056567;28;20040;-67
2022/01/06 00:10:46;;;;;;;3.45;1.58;;;;;;;20.31;37.81;101241.38;5042830;28;20037;-68
2022/01/06 00:13:15;;;;;;;3.78;1.67;;;;;;;20.34;37.70;101233.91;5061545;28;20552;-67
2022/01/06 00:23:18;;;;;;;3.55;1.55;;;;;;;20.18;37.95;101239.28;5055479;28;20074;-67
2022/01/06 00:23:52;;;;;;;4.78;1.50;;;;;;;20.12;38.05;101237.31;5060206;28;20052;-67
2022/01/06 00:26:17;;;;;;;3.97;1.27;;;;;;;20.04;38.25;101251.38;5059931;28;20044;-67
2022/01/06 00:28:43;;;;;;;5.85;1.70;;;;;;;20.02;38.23;101252.56;5054706;28;20110;-67
2022/01/06 00:31:08;;;;;;;4.82;1.92;;;;;;;19.90;38.47;101250.25;5058836;28;20060;-67
2022/01/06 00:33:34;;;;;;;1.98;1.10;;;;;;;19.93;38.34;101257.06;5057633;28;20048;-67
2022/01/06 00:36:00;;;;;;;2.58;1.55;;;;;;;19.68;38.51;101229.84;5057196;28;20112;-66
2022/01/06 00:38:26;;;;;;;3.65;1.60;;;;;;;19.87;38.49;101263.81;5059574;28;20182;-67
2022/01/06 00:40:52;;;;;;;2.83;1.17;;;;;;;19.81;38.47;101267.16;5056587;28;20723;-67
2022/01/06 00:43:18;;;;;;;3.35;1.30;;;;;;;19.83;38.42;101261.69;5057662;28;20090;-67
2022/01/06 00:45:44;;;;;;;3.30;1.70;;;;;;;19.61;38.63;101250.84;5058961;28;20040;-67
2022/01/06 00:48:10;;;;;;;3.75;1.55;;;;;;;19.72;38.74;101269.97;5058884;28;20028;-67
2022/01/06 00:50:41;;;;;;;3.25;1.42;;;;;;;19.70;38.62;101279.88;5059938;28;20045;-67
2022/01/06 00:53:07;;;;;;;2.90;1.60;;;;;;;19.70;38.75;101272.78;5060183;28;20035;-67
2022/01/06 00:55:34;;;;;;;4.60;1.70;;;;;;;19.63;38.68;101266.53;5059231;28;20068;-67
2022/01/06 00:58:00;;;;;;;3.45;1.50;;;;;;;19.58;38.89;101287.34;5057012;28;20203;-66
2022/01/06 01:00:29;;;;;;;5.68;1.90;;;;;;;19.53;39.07;101284.31;5036933;28;20043;-67
2022/01/06 01:02:55;;;;;;;5.27;1.53;;;;;;;19.44;38.95;101275.59;5056854;28;20041;-67
2022/01/06 01:05:21;;;;;;;3.85;1.60;;;;;;;19.50;38.95;101295.22;5057755;28;20053;-67
2022/01/06 01:07:47;;;;;;;4.82;1.75;;;;;;;19.49;38.94;101302.31;5058862;28;20048;-66
2022/01/06 01:10:13;;;;;;;2.70;1.35;;;;;;;19.45;39.12;101297.56;5037894;28;20067;-67
2022/01/06 01:12:46;;;;;;;2.60;1.35;;;;;;;19.45;39.15;101305.47;5060957;28;20044;-66
2022/01/06 01:15:18;;;;;;;3.17;1.42;;;;;;;19.47;39.06;101299.03;5058441;28;20052;-67
2022/01/06 01:17:45;;;;;;;4.55;1.83;;;;;;;19.44;39.14;101299.38;5061103;28;20048;-67
2022/01/06 01:20:11;;;;;;;3.03;1.60;;;;;;;19.39;39.14;101309.63;5057568;28;20059;-66
2022/01/06 01:22:36;;;;;;;2.47;1.13;;;;;;;19.36;39.20;101303.81;5058288;28;20040;-67
2022/01/06 01:25:02;;;;;;;1.58;0.95;;;;;;;19.43;39.15;101316.22;5056799;28;20098;-67
2022/01/06 01:27:34;;;;;;;4.45;1.52;;;;;;;19.36;39.31;101322.28;5039979;28;20505;-67
2022/01/06 01:30:08;;;;;;;1.63;1.08;;;;;;;19.30;39.19;101324.63;5056162;28;20068;-66
2022/01/06 01:32:35;;;;;;;4.55;1.63;;;;;;;19.33;39.32;101331.38;5060265;28;20029;-67
2022/01/06 01:35:02;;;;;;;4.90;1.35;;;;;;;19.32;39.30;101342.94;5062445;28;20043;-67
2022/01/06 01:37:29;;;;;;;2.63;1.33;;;;;;;19.27;39.28;101348.72;5058834;28;20021;-67
2022/01/06 01:39:55;;;;;;;2.88;1.25;;;;;;;19.30;39.33;101351.03;5060827;28;20090;-67
2022/01/06 01:42:21;;;;;;;2.78;1.67;;;;;;;19.28;39.39;101357.47;5056004;28;20556;-67
2022/01/06 01:44:49;;;;;;;5.10;1.67;;;;;;;19.22;39.50;101358.13;5059134;28;20037;-67
2022/01/06 01:47:16;;;;;;;2.80;1.30;;;;;;;19.17;39.35;101350.66;5057685;28;20036;-66
2022/01/06 01:49:54;;;;;;;3.95;1.38;;;;;;;19.29;39.25;101362.56;5053432;28;20035;-66
2022/01/06 01:52:20;;;;;;;2.55;1.35;;;;;;;19.19;39.51;101363.69;5040631;28;20037;-67
2022/01/06 01:54:46;;;;;;;3.58;1.48;;;;;;;19.23;39.42;101365.03;5058217;28;20048;-66
2022/01/06 01:57:12;;;;;;;2.00;0.80;;;;;;;19.23;39.28;101375.59;5038781;28;20033;-66
2022/01/06 01:59:37;;;;;;;4.10;1.40;;;;;;;19.18;39.41;101376.06;5060029;28;20869;-66
2022/01/06 02:02:04;;;;;;;3.25;1.50;;;;;;;19.11;39.48;101372.44;5055517;28;20479;-67
2022/01/06 02:04:29;;;;;;;2.13;1.13;;;;;;;19.29;39.15;101391.63;5054031;28;20082;-66
2022/01/06 02:06:55;;;;;;;1.73;1.15;;;;;;;19.12;39.35;101379.38;5057007;28;20437;-66
2022/01/06 02:09:20;;;;;;;3.10;1.60;;;;;;;19.17;39.49;101387.63;5055746;28;20036;-66
2022/01/06 02:11:46;;;;;;;3.75;1.20;;;;;;;18.96;39.52;101360.84;5058928;28;20040;-66
2022/01/06 02:14:12;;;;;;;3.03;1.70;;;;;;;19.13;39.67;101394.22;5040329;28;20036;-67
2022/01/06 02:16:38;;;;;;;3.67;1.33;;;;;;;19.06;39.51;101393.22;5059299;28;20501;-67
2022/01/06 02:19:03;;;;;;;3.45;1.23;;;;;;;19.06;39.65;101395.03;5054841;28;20052;-66
2022/01/06 02:21:29;;;;;;;4.45;1.48;;;;;;;19.00;39.54;101375.38;5054946;28;20052;-66
2022/01/06 02:23:55;;;;;;;3.85;1.40;;;;;;;19.09;39.43;101394.72;5036348;28;20044;-67
2022/01/06 02:26:20;;;;;;;4.72;1.30;;;;;;;19.07;39.69;101404.59;5054915;28;20044;-66
2022/01/06 02:28:46;;;;;;;4.53;1.52;;;;;;;19.08;39.42;101406.25;5054526;28;20744;-66
2022/01/06 02:31:12;;;;;;;3.70;1.33;;;;;;;19.06;39.51;101408.25;5023395;28;20341;-66
2022/01/06 02:33:37;;;;;;;3.10;1.20;;;;;;;19.00;39.68;101413.16;5061207;28;20491;-67
2022/01/06 02:36:04;;;;;;;2.38;1.30;;;;;;;19.05;39.70;101423.25;5060244;28;20072;-66
2022/01/06 02:38:29;;;;;;;2.05;1.10;;;;;;;19.06;39.50;101418.78;5057723;28;20049;-66
2022/01/06 02:40:55;;;;;;;2.72;1.30;;;;;;;19.04;39.61;101420.78;5055148;28;20064;-66
2022/01/06 02:43:23;;;;;;;1.92;1.25;;;;;;;19.01;39.60;101435.91;5059286;28;20063;-66
2022/01/06 02:45:49;;;;;;;2.88;1.52;;;;;;;19.05;39.47;101433.81;5054234;28;20582;-67
2022/01/06 02:48:15;;;;;;;3.30;1.30;;;;;;;19.11;39.45;101440.25;5054931;28;20044;-67
2022/01/06 02:50:47;;;;;;;4.00;1.27;;;;;;;19.05;39.51;101446.19;5054699;28;20831;-66
2022/01/06 02:53:14;;;;;;;2.55;1.40;;;;;;;19.03;39.52;101446.34;5056144;28;20155;-67
2022/01/06 02:55:50;;;;;;;3.90;1.58;;;;;;;19.01;39.62;101448.28;5037755;28;20024;-66
2022/01/06 02:58:20;;;;;;;3.28;1.25;;;;;;;18.95;39.81;101446.28;5055435;28;20040;-66
2022/01/06 03:00:45;;;;;;;;;;;;;;;18.92;39.95;101447.44;5055695;28;20044;-66
2022/01/06 03:03:11;;;;;;;4.53;1.42;;;;;;;18.92;39.89;101446.63;5056728;28;19921;-66
2022/01/06 03:05:37;;;;;;;2.63;1.20;;;;;;;18.93;39.90;101451.72;5056433;28;20869;-67
2022/01/06 03:08:03;;;;;;;6.70;1.50;;;;;;;18.88;39.74;101454.03;5057546;28;20049;-66
2022/01/06 03:10:30;;;;;;;2.67;1.20;;;;;;;18.87;39.93;101462.09;5040604;28;20075;-67
2022/01/06 03:12:57;;;;;;;3.67;1.15;;;;;;;18.88;39.68;101459.31;5058664;28;20028;-67
2022/01/06 03:15:23;;;;;;;4.57;1.30;;;;;;;18.86;39.73;101461.28;5059749;28;20044;-67
2022/01/06 03:17:51;;;;;;;2.38;1.08;;;;;;;18.86;39.86;101460.44;5059495;28;20461;-66
2022/01/06 03:20:19;;;;;;;3.63;1.15;;;;;;;18.83;39.79;101466.03;5058450;28;20477;-67
2022/01/06 03:22:45;;;;;;;2.83;1.13;;;;;;;18.86;39.87;101461.28;5061160;28;20055;-67
2022/01/06 03:25:12;;;;;;;3.08;1.40;;;;;;;18.86;39.86;101476.28;5059263;28;20194;-66
2022/01/06 03:27:39;;;;;;;5.57;1.95;;;;;;;18.82;39.84;101467.84;5056267;28;20755;-67
2022/01/06 03:30:09;;;;;;;2.47;1.63;;;;;;;18.85;39.66;101479.88;5059936;28;20529;-67
2022/01/06 03:32:34;;;;;;;;;;;;;;;18.82;39.68;101486.31;5058324;28;20039;-66
2022/01/06 03:35:00;;;;;;;3.28;2.00;;;;;;;18.82;39.67;101482.84;5059406;28;19912;-66
2022/01/06 03:37:26;;;;;;;2.45;1.25;;;;;;;18.83;39.81;101492.41;5039389;28;20036;-66
2022/01/06 03:39:52;;;;;;;1.50;1.13;;;;;;;18.80;39.69;101501.47;5056781;28;20553;-66
2022/01/06 03:42:17;;;;;;;3.40;1.20;;;;;;;18.81;39.71;101504.94;5058927;28;20041;-66
2022/01/06 03:44:42;;;;;;;2.08;1.27;;;;;;;18.75;39.86;101500.28;5058615;28;20041;-67
2022/01/06 03:47:08;;;;;;;3.58;1.13;;;;;;;18.73;39.97;101505.72;5061534;28;20063;-66
2022/01/06 03:49:33;;;;;;;3.80;1.15;;;;;;;18.76;39.91;101502.78;5058895;28;20082;-66
2022/01/06 03:51:59;;;;;;;3.08;1.20;;;;;;;18.80;39.53;101498.00;5059671;28;20039;-67
2022/01/06 03:54:25;;;;;;;4.15;1.25;;;;;;;18.79;39.77;101507.72;5059125;28;20036;-66
2022/01/06 03:56:50;;;;;;;2.50;1.00;;;;;;;18.82;39.66;101509.22;5044784;28;20044;-67
2022/01/06 03:59:17;;;;;;;3.50;1.52;;;;;;;18.77;39.75;101514.16;5059185;28;20040;-66
2022/01/06 04:01:43;;;;;;;3.03;1.23;;;;;;;18.65;39.85;101510.94;5058991;28;20548;-67
2022/01/06 04:04:09;;;;;;;5.25;1.40;;;;;;;18.65;40.21;101516.22;5057611;28;20051;-67
2022/01/06 04:06:35;;;;;;;4.30;1.42;;;;;;;18.70;39.94;101522.69;5043713;28;20491;-66
2022/01/06 04:09:00;;;;;;;3.17;1.27;;;;;;;18.64;40.14;101514.56;5058855;28;20174;-66
2022/01/06 04:11:26;;;;;;;4.45;1.40;;;;;;;18.63;39.75;101512.91;5061719;28;20774;-67
2022/01/06 04:13:51;;;;;;;2.58;0.85;;;;;;;18.66;39.66;101521.31;5057503;28;20043;-66
2022/01/06 04:16:18;;;;;;;4.72;1.30;;;;;;;18.45;39.82;101491.00;5058837;28;20421;-66
2022/01/06 04:18:44;;;;;;;1.98;0.90;;;;;;;18.46;40.08;101511.94;5060021;28;20062;-66
2022/01/06 04:21:10;;;;;;;2.53;1.30;;;;;;;18.70;39.95;101542.97;5060356;28;20063;-66
2022/01/06 04:23:36;;;;;;;2.25;1.00;;;;;;;18.77;39.74;101540.53;5055690;28;20127;-66
2022/01/06 04:26:02;;;;;;;2.22;1.30;;;;;;;18.62;39.40;101509.41;5057388;28;20039;-66
2022/01/06 04:28:28;;;;;;;5.13;1.63;;;;;;;19.12;38.99;101550.13;5038592;28;20041;-66
2022/01/06 04:30:54;;;;;;;2.15;1.08;;;;;;;19.08;39.17;101547.00;5057334;28;20094;-67
2022/01/06 04:33:20;;;;;;;4.93;1.55;;;;;;;19.21;38.96;101543.91;5056499;28;20024;-67
2022/01/06 04:35:45;;;;;;;1.52;0.55;;;;;;;19.07;39.10;101537.41;5060629;28;20051;-67
2022/01/06 04:38:11;;;;;;;2.65;1.17;;;;;;;19.22;39.14;101548.22;5059466;28;20086;-67
2022/01/06 04:40:36;;;;;;;2.53;1.35;;;;;;;19.22;39.33;101550.88;5041511;28;20040;-67
2022/01/06 04:43:02;;;;;;;5.15;1.27;;;;;;;19.33;39.22;101559.31;5059085;28;20071;-66
2022/01/06 04:45:27;;;;;;;3.65;1.40;;;;;;;19.52;38.98;101558.22;5058284;28;20681;-66
2022/01/06 04:47:53;;;;;;;1.67;0.85;;;;;;;19.71;38.77;101553.69;5045007;28;20040;-66
2022/01/06 04:50:19;;;;;;;1.88;1.27;;;;;;;19.88;38.55;101558.84;5060703;28;20052;-66
2022/01/06 04:52:44;;;;;;;2.17;1.08;;;;;;;19.91;38.41;101566.44;5058944;28;20382;-67
2022/01/06 04:55:11;;;;;;;4.22;1.20;;;;;;;20.04;38.29;101570.44;5058715;28;20048;-67
2022/01/06 04:57:36;;;;;;;2.47;1.05;;;;;;;20.09;38.37;101570.78;5053335;28;20055;-66
2022/01/06 05:00:05;;;;;;;1.73;0.77;;;;;;;20.02;38.46;101559.22;5057458;28;20041;-67
2022/01/06 05:02:30;;;;;;;3.45;1.30;;;;;;;20.11;38.50;101567.00;5055898;28;20040;-66
2022/01/06 05:04:56;;;;;;;2.53;1.23;;;;;;;20.15;38.43;101576.25;5059805;28;20043;-67
2022/01/06 05:07:21;;;;;;;3.60;0.82;;;;;;;20.16;38.63;101574.44;5056544;28;20508;-67
2022/01/06 05:09:47;;;;;;;1.83;1.08;;;;;;;20.19;38.44;101574.94;5057191;28;20033;-66
2022/01/06 05:12:13;;;;;;;2.78;1.17;;;;;;;20.27;38.37;101581.22;5060542;28;20040;-66
2022/01/06 05:14:39;;;;;;;2.65;1.25;;;;;;;20.26;38.45;101580.38;5058253;28;20180;-66
2022/01/06 05:17:05;;;;;;;1.83;0.98;;;;;;;20.38;38.44;101578.25;5025861;28;20024;-66
2022/01/06 05:19:31;;;;;;;1.88;0.68;;;;;;;20.44;38.15;101573.16;5040198;28;20037;-67
2022/01/06 05:21:58;;;;;;;3.05;0.90;;;;;;;20.46;38.22;101583.56;5058665;28;20174;-67
2022/01/06 05:24:24;;;;;;;2.22;0.85;;;;;;;20.42;38.31;101580.44;5059539;28;20048;-66
2022/01/06 05:26:50;;;;;;;1.67;1.00;;;;;;;20.41;38.27;101592.00;5059239;28;20110;-67
2022/01/06 05:29:16;;;;;;;5.90;1.55;;;;;;;20.55;38.06;101593.16;5059387;28;20044;-67
2022/01/06 05:31:42;;;;;;;1.90;1.15;;;;;;;20.54;37.96;101586.22;5057924;28;20040;-67
2022/01/06 05:34:07;;;;;;;2.47;1.20;;;;;;;20.53;38.20;101595.16;5060704;28;20403;-67
2022/01/06 05:36:34;;;;;;;2.47;1.60;;;;;;;20.54;38.18;101599.44;5059416;28;20036;-66
2022/01/06 05:39:00;;;;;;;4.63;1.23;;;;;;;20.57;37.96;101596.47;5054104;28;20052;-67
2022/01/06 05:41:26;;;;;;;4.20;1.45;;;;;;;20.65;37.85;101604.41;5056662;28;20044;-66
2022/01/06 05:43:51;;;;;;;2.33;1.05;;;;;;;20.64;37.92;101601.91;5052976;28;20048;-67
2022/01/06 05:46:17;;;;;;;3.13;1.20;;;;;;;20.65;37.97;101611.53;5058331;28;20033;-67
2022/01/06 05:48:44;;;;;;;2.95;1.25;;;;;;;20.71;37.94;101613.50;5055842;28;20048;-66
2022/01/06 05:51:09;;;;;;;2.40;1.40;;;;;;;20.72;37.83;101610.69;5053790;28;20071;-67
2022/01/06 05:53:35;;;;;;;4.07;1.88;;;;;;;20.79;37.91;101618.78;5056313;28;20074;-65
2022/01/06 05:56:00;;;;;;;3.65;1.13;;;;;;;20.83;37.79;101619.28;5060847;28;20067;-65
2022/01/06 05:58:26;;;;;;;2.97;1.30;;;;;;;20.85;37.84;101625.25;5060040;28;20041;-65
2022/01/06 06:00:51;;;;;;;2.15;1.17;;;;;;;20.86;37.96;101632.19;5054649;28;20032;-65
2022/01/06 06:03:17;;;;;;;1.83;0.80;;;;;;;20.88;37.72;101633.69;5054636;28;20319;-66
2022/01/06 06:05:42;;;;;;;2.55;1.10;;;;;;;20.87;37.96;101634.69;5059178;28;20048;-66
2022/01/06 06:08:09;;;;;;;2.45;1.00;;;;;;;20.90;37.82;101641.44;5053847;28;20765;-65
2022/01/06 06:10:36;;;;;;;2.38;1.10;;;;;;;20.91;37.81;101635.16;5057240;28;20036;-65
2022/01/06 06:13:01;;;;;;;3.72;1.20;;;;;;;20.89;37.69;101637.97;5035267;28;20029;-66
2022/01/06 06:15:28;;;;;;;1.75;1.02;;;;;;;20.96;37.63;101638.13;5060251;28;20032;-66
2022/01/06 06:17:53;;;;;;;4.03;1.15;;;;;;;20.69;37.96;101639.31;5056477;28;20137;-65
2022/01/06 06:20:19;;;;;;;2.33;1.08;;;;;;;20.71;37.97;101642.63;5058059;28;20437;-65
2022/01/06 06:22:44;;;;;;;2.60;1.20;;;;;;;20.64;38.19;101642.44;5055993;28;20040;-65
2022/01/06 06:25:10;;;;;;;4.38;1.52;;;;;;;20.73;37.94;101649.41;5035137;28;20033;-67
2022/01/06 06:27:36;;;;;;;3.42;1.10;;;;;;;20.72;38.07;101642.44;5055002;28;20067;-67
2022/01/06 06:30:04;;;;;;;4.88;1.13;;;;;;;20.68;37.94;101641.13;5056239;28;20478;-67
2022/01/06 06:32:33;;;;;;;2.45;1.23;;;;;;;20.73;37.83;101646.75;5056808;28;20132;-65
2022/01/06 06:34:59;;;;;;;3.40;1.10;;;;;;;20.70;37.85;101654.19;5052892;28;22124;-65
2022/01/06 06:37:25;;;;;;;2.22;1.25;;;;;;;20.63;38.17;101658.47;5051775;28;20496;-65
2022/01/06 06:39:50;;;;;;;2.72;0.93;;;;;;;20.58;38.26;101663.44;5050541;28;20053;-65
2022/01/06 06:42:16;;;;;;;2.53;1.17;;;;;;;20.54;38.27;101660.31;5053259;28;20040;-65
2022/01/06 06:44:41;;;;;;;2.33;0.93;;;;;;;20.43;38.20;101668.56;5057635;28;20094;-65
2022/01/06 06:47:07;;;;;;;2.88;0.90;;;;;;;20.54;38.14;101670.06;5040377;28;20200;-67
2022/01/06 06:49:33;;;;;;;2.58;1.08;;;;;;;20.59;38.18;101670.41;5056792;28;20509;-66
2022/01/06 06:51:58;;;;;;;2.33;1.00;;;;;;;20.64;38.14;101671.53;5055521;28;20122;-67
2022/01/06 06:54:25;;;;;;;1.95;1.10;;;;;;;20.65;38.02;101675.06;5058179;28;20716;-66
2022/01/06 06:56:50;;;;;;;2.20;1.00;;;;;;;20.78;37.92;101675.38;5053767;28;20048;-67
2022/01/06 06:59:16;;;;;;;2.03;0.95;;;;;;;20.84;37.71;101677.38;5042423;28;20040;-68
2022/01/06 07:01:41;;;;;;;1.80;1.00;;;;;;;20.95;37.44;101682.31;5060603;28;20052;-67
2022/01/06 07:04:07;;;;;;;5.38;1.17;;;;;;;21.04;37.58;101681.31;5043296;28;20043;-67
2022/01/06 07:06:32;;;;;;;2.03;0.88;;;;;;;21.08;37.47;101684.47;5053160;28;20033;-66
2022/01/06 07:08:58;;;;;;;3.00;1.00;;;;;;;21.09;37.53;101694.88;5054730;28;20236;-67
2022/01/06 07:11:23;;;;;;;2.00;1.02;;;;;;;20.79;37.44;101639.97;5056539;28;20498;-67
2022/01/06 07:13:49;;;;;;;2.92;1.23;;;;;;;21.13;37.62;101693.56;5057024;28;20224;-66
2022/01/06 07:16:15;;;;;;;2.40;0.85;;;;;;;21.27;37.42;101701.84;5057089;28;20044;-67
2022/01/06 07:18:40;;;;;;;4.05;1.25;;;;;;;21.24;37.44;101708.31;5057170;28;20118;-66
2022/01/06 07:21:06;;;;;;;2.03;1.00;;;;;;;21.21;37.45;101713.09;5058956;28;20485;-66
2022/01/06 07:23:32;;;;;;;2.67;1.15;;;;;;;21.23;37.37;101713.75;5029648;28;20483;-66
2022/01/06 07:25:57;;;;;;;5.15;1.70;;;;;;;21.24;37.50;101718.91;5057785;28;20036;-63
2022/01/06 07:28:23;;;;;;;3.70;0.95;;;;;;;21.17;37.64;101722.34;5058900;28;20055;-62
2022/01/06 07:30:48;;;;;;;1.88;0.98;;;;;;;21.12;37.57;101728.97;5038935;28;20056;-62
2022/01/06 07:33:14;;;;;;;3.10;1.20;;;;;;;20.94;37.74;101723.03;5055428;28;20036;-63
2022/01/06 07:35:39;;;;;;;1.75;0.68;;;;;;;21.02;37.56;101735.44;5053795;28;22036;-65
2022/01/06 07:38:05;;;;;;;5.75;1.35;;;;;;;20.94;37.65;101736.25;5059186;28;20418;-62
2022/01/06 07:40:30;;;;;;;4.05;1.50;;;;;;;21.00;37.61;101746.19;5056673;28;20048;-62
2022/01/06 07:42:56;;;;;;;3.50;1.23;;;;;;;20.90;37.59;101747.34;5036230;28;20454;-63
2022/01/06 07:45:22;;;;;;;3.30;1.40;;;;;;;20.81;37.65;101752.63;5062100;28;20066;-65
2022/01/06 07:48:00;;;;;;;3.60;1.20;;;;;;;20.68;37.82;101740.88;5060158;28;20044;-62
2022/01/06 07:50:33;;;;;;;2.55;1.30;;;;;;;20.63;37.78;101733.41;5060517;28;20429;-63
2022/01/06 07:52:59;;;;;;;3.53;1.20;;;;;;;20.69;37.93;101761.88;5060787;28;20051;-63
2022/01/06 07:55:26;;;;;;;3.72;1.42;;;;;;;20.49;37.54;101716.38;5062151;28;20094;-62
2022/01/06 07:57:54;;;;;;;2.83;1.45;;;;;;;20.66;37.82;101754.28;5061052;28;20878;-63
2022/01/06 08:00:20;;;;;;;3.22;1.50;;;;;;;20.58;37.81;101750.78;5061204;28;20494;-62
2022/01/06 08:02:47;;;;;;;4.63;1.35;;;;;;;20.67;37.58;101765.69;5058319;28;20052;-62
2022/01/06 08:05:14;;;;;;;4.53;1.85;;;;;;;20.58;37.70;101758.72;5060315;28;20037;-62
2022/01/06 08:07:40;;;;;;;3.05;1.40;;;;;;;20.62;37.75;101757.38;5063316;28;20049;-62
2022/01/06 08:10:07;;;;;;;3.35;1.25;;;;;;;20.61;37.37;101759.22;5057298;28;20044;-62
2022/01/06 08:12:32;;;;;;;5.05;1.98;;;;;;;20.57;37.78;101759.69;5064517;28;20046;-65
2022/01/06 08:14:58;;;;;;;2.33;1.30;;;;;;;20.49;37.86;101758.72;5060602;28;20113;-63
2022/01/06 08:17:24;;;;;;;4.25;1.45;;;;;;;20.54;37.72;101762.69;5060193;28;20051;-63
2022/01/06 08:19:49;;;;;;;3.03;1.38;;;;;;;20.68;37.31;101760.22;5063834;28;20048;-62
2022/01/06 08:22:15;;;;;;;5.95;1.80;;;;;;;20.61;37.50;101767.16;5058317;28;20028;-63
2022/01/06 08:24:40;;;;;;;3.88;1.35;;;;;;;20.74;37.34;101761.41;5061777;28;20506;-63
2022/01/06 08:27:08;;;;;;;5.63;1.50;;;;;;;20.79;37.27;101767.00;5066246;28;20035;-63
2022/01/06 08:29:38;;;;;;;4.20;1.77;;;;;;;20.89;37.11;101772.16;5061442;28;20044;-62
2022/01/06 08:32:04;;;;;;;4.32;1.63;;;;;;;20.97;36.91;101780.09;5062672;28;20478;-63
2022/01/06 08:34:30;;;;;;;3.72;1.55;;;;;;;20.93;36.98;101773.50;5060282;28;20068;-65
2022/01/06 08:36:55;;;;;;;6.75;1.67;;;;;;;21.04;37.00;101789.06;5061455;28;20447;-66
2022/01/06 08:39:22;;;;;;;2.45;1.27;;;;;;;21.05;37.02;101788.91;5060350;28;20036;-65
2022/01/06 08:41:49;;;;;;;3.55;1.67;;;;;;;21.09;37.00;101790.22;5062726;28;20040;-65
2022/01/06 08:44:15;;;;;;;4.40;1.52;;;;;;;20.95;37.18;101787.38;5057897;28;20501;-65
2022/01/06 08:46:41;;;;;;;3.63;1.60;;;;;;;21.03;37.04;101784.78;5062885;28;20040;-65
2022/01/06 08:49:11;;;;;;;6.25;1.80;;;;;;;21.11;36.76;101790.88;5055016;28;20040;-65
2022/01/06 08:51:38;;;;;;;4.82;1.65;;;;;;;21.05;36.94;101790.72;5060809;28;20466;-65
2022/01/06 08:54:04;;;;;;;5.25;1.70;;;;;;;21.01;37.20;101786.75;5052526;28;20131;-65
2022/01/06 08:56:29;;;;;;;3.53;1.73;;;;;;;21.02;37.11;101781.28;5043733;28;20045;-65
2022/01/06 08:58:55;;;;;;;5.28;1.65;;;;;;;21.03;37.02;101775.00;5055947;28;20057;-65
2022/01/06 09:01:21;;;;;;;7.03;1.95;;;;;;;21.04;37.03;101774.00;5054543;28;20036;-65
2022/01/06 09:03:47;;;;;;;5.07;1.77;;;;;;;21.18;36.58;101782.28;5058530;28;20097;-65
2022/01/06 09:06:13;;;;;;;4.13;1.85;;;;;;;21.00;37.01;101777.94;5060098;28;20425;-65
2022/01/06 09:08:38;;;;;;;3.95;1.42;;;;;;;21.10;36.74;101791.88;5060684;28;20032;-65
2022/01/06 09:11:04;;;;;;;5.05;1.88;;;;;;;21.12;36.80;101797.84;5059894;28;20127;-65
2022/01/06 09:13:30;;;;;;;3.47;1.50;;;;;;;21.13;36.81;101799.50;5063284;28;20422;-65
2022/01/06 09:15:55;;;;;;;3.67;1.80;;;;;;;21.17;36.62;101796.50;5058661;28;20144;-65
2022/01/06 09:18:21;;;;;;;4.63;1.70;;;;;;;21.26;36.49;101806.16;5026448;28;20080;-65
2022/01/06 09:20:49;;;;;;;5.00;1.52;;;;;;;21.21;36.50;101806.63;5057016;28;20622;-65
2022/01/06 09:23:15;;;;;;;3.13;1.75;;;;;;;21.30;36.18;101802.19;5056396;28;20043;-65
2022/01/06 09:25:40;;;;;;;7.47;2.15;;;;;;;21.30;36.49;101802.19;5061223;28;20036;-65
2022/01/06 09:28:06;;;;;;;4.93;1.67;;;;;;;21.17;36.54;101788.56;5056550;28;20035;-65
2022/01/06 09:30:32;;;;;;;4.18;1.90;;;;;;;21.21;36.30;101809.28;5064898;28;20036;-65
2022/01/06 09:32:58;;;;;;;5.35;2.00;;;;;;;21.13;36.46;101809.25;5055533;28;20576;-66
2022/01/06 09:35:23;;;;;;;4.82;1.80;;;;;;;21.20;36.54;101817.41;5059468;28;20040;-65
2022/01/06 09:37:49;;;;;;;5.63;2.00;;;;;;;21.10;36.45;101817.53;5059934;28;20044;-66
2022/01/06 09:40:15;;;;;;;5.90;1.85;;;;;;;21.09;36.56;101816.72;5061250;28;20048;-65
2022/01/06 09:42:42;;;;;;;5.05;1.77;;;;;;;20.97;36.75;101825.94;5054443;28;20040;-65
2022/01/06 09:45:08;;;;;;;5.40;1.95;;;;;;;20.95;36.78;101824.47;5055143;28;20032;-65
2022/01/06 09:47:36;;;;;;;5.80;2.30;;;;;;;21.05;36.39;101827.81;5055438;28;20041;-65
2022/01/06 09:50:02;;;;;;;2.58;1.60;;;;;;;21.02;36.56;101823.66;5058462;28;20044;-65
2022/01/06 09:52:27;;;;;;;5.85;1.88;;;;;;;20.98;36.68;101832.91;5039772;28;20047;-66
2022/01/06 09:54:53;;;;;;;4.63;2.08;;;;;;;21.06;36.34;101829.47;5051157;28;20048;-65
2022/01/06 09:57:18;;;;;;;4.93;1.98;;;;;;;21.02;36.42;101828.13;5044634;28;20051;-66
2022/01/06 09:59:44;;;;;;;7.95;2.20;;;;;;;21.02;36.47;101826.31;5059469;28;20032;-65
2022/01/06 10:02:16;;;;;;;4.57;1.55;;;;;;;20.67;36.41;101774.47;5060874;28;20040;-65
2022/01/06 10:04:47;;;;;;;6.63;2.20;;;;;;;20.92;36.64;101841.50;5059959;28;20040;-65
2022/01/06 10:07:15;;;;;;;5.18;1.95;;;;;;;20.94;36.54;101838.69;5059686;28;20506;-64
2022/01/06 10:09:41;;;;;;;4.00;1.70;;;;;;;20.91;36.57;101842.50;5061223;28;20592;-65
2022/01/06 10:12:11;;;;;;;3.63;1.77;;;;;;;20.83;36.79;101837.19;5061542;28;20071;-65
2022/01/06 10:14:44;;;;;;;6.35;2.05;;;;;;;20.83;36.61;101842.50;5061768;28;20093;-65
2022/01/06 10:17:12;;;;;;;7.10;1.92;;;;;;;20.84;36.88;101841.50;5054173;28;20029;-64
2022/01/06 10:19:43;;;;;;;4.07;1.67;;;;;;;20.87;36.78;101838.53;5052884;28;20069;-65
2022/01/06 10:22:19;;;;;;;4.70;2.03;;;;;;;20.89;36.48;101823.31;5062603;28;20068;-65
2022/01/06 10:24:47;;;;;;;2.78;1.50;;;;;;;20.91;36.45;101831.91;5042133;28;20500;-65
2022/01/06 10:27:15;;;;;;;7.25;2.30;;;;;;;20.88;36.67;101832.25;5060814;28;20059;-65
2022/01/06 10:29:46;;;;;;;5.75;2.30;;;;;;;20.84;36.76;101820.31;5058660;28;20041;-65
2022/01/06 10:32:15;;;;;;;5.55;1.98;;;;;;;20.91;36.47;101826.63;5057974;28;20056;-65
2022/01/06 10:34:47;;;;;;;6.40;1.77;;;;;;;20.91;36.78;101826.63;5058285;28;20040;-64
2022/01/06 10:37:25;;;;;;;5.47;1.73;;;;;;;20.99;36.66;101816.03;5057918;28;20047;-65
2022/01/06 10:39:59;;;;;;;5.65;1.90;;;;;;;21.02;36.59;101821.00;5056520;28;20139;-64
2022/01/06 10:42:32;;;;;;;6.00;1.58;;;;;;;21.00;36.66;101817.69;5055127;28;20033;-64
2022/01/06 10:45:04;;;;;;;4.65;1.73;;;;;;;21.06;36.57;101818.88;5060408;28;20040;-64
2022/01/06 10:47:32;;;;;;;4.57;1.88;;;;;;;21.21;36.25;101821.69;5058642;28;20043;-64
2022/01/06 10:50:16;;;;;;;3.95;1.70;;;;;;;21.22;36.34;101812.75;5057582;28;20033;-65
2022/01/06 10:52:50;;;;;;;4.38;1.90;;;;;;;21.16;36.54;101814.22;5058522;28;20033;-64
2022/01/06 10:55:21;;;;;;;6.75;1.67;;;;;;;21.17;36.64;101815.03;5061452;28;20040;-64
2022/01/06 10:57:58;;;;;;;6.78;2.10;;;;;;;21.16;36.44;101814.22;5057658;28;20060;-64
2022/01/06 11:00:36;;;;;;;4.30;1.63;;;;;;;21.05;36.82;101807.44;5059003;28;20040;-64
2022/01/06 11:03:07;;;;;;;5.68;2.50;;;;;;;21.11;36.75;101817.38;5058449;28;20082;-64
2022/01/06 11:05:35;;;;;;;4.57;1.83;;;;;;;21.11;36.69;101811.25;5040810;28;20044;-64
2022/01/06 11:08:03;;;;;;;3.33;1.40;;;;;;;21.09;36.68;101802.63;5049872;28;20039;-64
2022/01/06 11:10:29;;;;;;;4.57;1.70;;;;;;;21.07;36.61;101799.34;5060766;28;20486;-64
2022/01/06 11:12:55;;;;;;;4.15;1.58;;;;;;;20.95;36.83;101792.69;5060789;28;20032;-64
2022/01/06 11:15:20;;;;;;;4.43;1.70;;;;;;;20.96;36.97;101805.75;5057821;28;20117;-65
2022/01/06 11:17:48;;;;;;;4.32;1.75;;;;;;;21.08;36.68;101801.81;5061514;28;20044;-64
2022/01/06 11:20:21;;;;;;;5.43;2.00;;;;;;;20.96;36.99;101802.28;5046426;28;20064;-64
2022/01/06 11:22:52;;;;;;;6.32;2.13;;;;;;;21.08;36.49;101806.28;5051951;28;20041;-64
2022/01/06 11:25:33;;;;;;;5.00;1.95;;;;;;;21.11;36.43;101805.94;5057179;28;20032;-65
2022/01/06 11:28:12;;;;;;;4.85;2.42;;;;;;;21.03;36.78;101809.44;5055288;28;20032;-64
2022/01/06 11:30:52;;;;;;;5.10;1.70;;;;;;;20.96;36.91;101791.69;5057006;28;20043;-65